createdAt,value
2017-08-23T10:18:39.067Z,49.25
2017-08-23T10:19:47.052Z,46.34
2017-08-23T10:20:53.877Z,46.46
2017-08-23T10:22:00.246Z,46.18
2017-08-23T10:23:06.275Z,46.70
2017-08-23T10:24:12.282Z,47.64
2017-08-23T10:25:18.302Z,46.76
2017-08-23T10:26:24.534Z,45.78
2017-08-23T10:27:30.621Z,46.51
2017-08-23T10:28:36.650Z,46.12
2017-08-23T10:29:42.691Z,47.64
2017-08-23T10:30:48.713Z,48.85
2017-08-23T10:31:54.731Z,46.53
2017-08-23T10:33:00.830Z,49.86
2017-08-23T10:34:06.858Z,46.87
2017-08-23T10:35:12.923Z,48.75
2017-08-23T10:36:18.970Z,48.68
2017-08-23T10:37:25.014Z,46.63
2017-08-23T10:38:31.138Z,48.92
2017-08-23T10:39:37.216Z,46.00
2017-08-23T10:40:43.294Z,45.08
2017-08-23T10:41:49.394Z,44.18
2017-08-23T10:42:55.452Z,45.48
2017-08-23T10:44:01.552Z,45.30
2017-08-23T10:45:07.637Z,45.65
2017-08-23T10:46:13.711Z,45.71
2017-08-23T10:47:19.801Z,47.79
2017-08-23T10:48:25.897Z,46.66
2017-08-23T10:49:32.391Z,49.87
2017-08-23T10:50:38.691Z,44.11
2017-08-23T10:51:44.790Z,44.77
2017-08-23T10:52:50.842Z,44.67
2017-08-23T10:53:56.924Z,46.82
2017-08-23T10:55:03.015Z,43.46
2017-08-23T10:56:09.057Z,44.24
2017-08-23T10:57:15.100Z,43.99
2017-08-23T10:58:21.186Z,43.40
2017-08-23T10:59:27.241Z,46.21
2017-08-23T11:00:33.331Z,43.80
2017-08-23T11:01:39.414Z,46.64
2017-08-23T11:02:45.433Z,47.36
2017-08-23T11:03:51.458Z,45.77
2017-08-23T11:04:57.523Z,44.63
2017-08-23T11:06:03.578Z,45.80
2017-08-23T11:07:09.589Z,45.58
2017-08-23T11:08:15.631Z,46.32
2017-08-23T11:09:21.702Z,47.59
2017-08-23T11:10:27.754Z,44.61
2017-08-23T11:11:33.800Z,47.33
2017-08-23T11:12:39.831Z,46.19
2017-08-23T11:13:45.845Z,46.81
2017-08-23T11:14:51.926Z,49.95
2017-08-23T11:15:57.967Z,45.89
2017-08-23T11:17:04.021Z,47.13
2017-08-23T11:18:10.018Z,45.06
2017-08-23T11:19:16.081Z,48.02
2017-08-23T11:20:22.965Z,44.60
2017-08-23T11:21:30.124Z,44.45
2017-08-23T11:22:37.291Z,45.56
2017-08-23T11:23:44.145Z,47.06
2017-08-23T11:24:51.349Z,44.46
2017-08-23T11:25:58.476Z,43.61
2017-08-23T11:27:05.343Z,44.12
2017-08-23T11:28:12.628Z,46.61
2017-08-23T11:29:19.077Z,45.76
2017-08-23T11:30:25.156Z,47.33
2017-08-23T11:31:31.197Z,47.51
2017-08-23T11:32:37.058Z,46.11
2017-08-23T11:33:43.330Z,46.05
2017-08-23T11:34:49.390Z,45.82
2017-08-23T11:35:55.442Z,45.71
2017-08-23T11:37:01.539Z,47.63
2017-08-23T11:38:07.565Z,45.81
2017-08-23T11:39:13.632Z,45.22
2017-08-23T11:40:19.692Z,47.33
2017-08-23T11:41:25.711Z,45.57
2017-08-23T11:42:31.733Z,44.07
2017-08-23T11:43:37.775Z,44.53
2017-08-23T11:44:43.909Z,46.82
2017-08-23T11:45:49.945Z,50.25
2017-08-23T11:46:56.005Z,45.47
2017-08-23T11:48:02.114Z,46.34
2017-08-23T11:49:08.159Z,45.14
2017-08-23T11:50:14.976Z,43.58
2017-08-23T11:51:21.114Z,44.61
2017-08-23T11:52:27.237Z,42.00
2017-08-23T11:53:33.277Z,44.08
2017-08-23T11:54:39.292Z,44.37
2017-08-23T11:55:45.353Z,46.47
2017-08-23T11:56:51.379Z,42.99
2017-08-23T11:57:57.445Z,45.61
2017-08-23T11:59:03.495Z,44.06
2017-08-23T12:00:09.549Z,45.45
2017-08-23T12:01:15.660Z,47.86
2017-08-23T12:02:21.755Z,44.52
2017-08-23T12:03:27.754Z,44.77
2017-08-23T12:04:33.793Z,46.82
2017-08-23T12:05:39.842Z,46.54
2017-08-23T12:06:45.926Z,46.61
2017-08-23T12:07:51.957Z,48.74
2017-08-23T12:08:58.062Z,45.79
2017-08-23T12:10:04.156Z,44.72
2017-08-23T12:11:10.201Z,43.10
2017-08-23T12:12:16.342Z,44.53
2017-08-23T12:13:22.405Z,47.16
2017-08-23T12:14:28.528Z,46.36
2017-08-23T12:15:34.681Z,43.37
2017-08-23T12:16:40.755Z,42.96
2017-08-23T12:17:46.853Z,43.94
2017-08-23T12:18:52.929Z,44.38
2017-08-23T12:19:58.975Z,45.53
2017-08-23T12:21:05.004Z,42.92
2017-08-23T12:22:11.065Z,43.66
2017-08-23T12:23:17.138Z,45.87
2017-08-23T12:24:24.249Z,42.83
2017-08-23T12:25:32.702Z,43.50
2017-08-23T12:26:40.734Z,41.88
2017-08-23T12:27:48.618Z,43.60
2017-08-23T12:28:56.892Z,45.97
2017-08-23T12:30:05.589Z,47.08
2017-08-23T12:31:14.624Z,43.94
2017-08-23T12:32:23.917Z,44.32
2017-08-23T12:33:31.466Z,43.97
2017-08-23T12:34:39.688Z,45.30
2017-08-23T12:35:47.262Z,46.06
2017-08-23T12:36:55.364Z,43.15
2017-08-23T12:38:03.466Z,42.95
2017-08-23T12:39:12.142Z,43.05
2017-08-23T12:40:20.254Z,40.75
2017-08-23T12:41:28.536Z,40.39
2017-08-23T12:42:38.633Z,40.95
2017-08-23T12:43:47.810Z,40.47
2017-08-23T12:44:56.731Z,41.39
2017-08-23T12:46:06.006Z,43.67
2017-08-23T12:47:15.431Z,43.89
2017-08-23T12:48:25.264Z,43.66
2017-08-23T12:49:33.789Z,44.89
2017-08-23T12:50:41.944Z,44.53
2017-08-23T12:51:49.985Z,44.73
2017-08-23T12:52:59.633Z,43.19
2017-08-23T12:54:07.116Z,42.86
2017-08-23T12:55:15.281Z,43.78
2017-08-23T12:56:23.233Z,43.99
2017-08-23T12:57:31.420Z,43.94
2017-08-23T12:59:56.808Z,43.83
2017-08-23T13:01:03.858Z,44.52
2017-08-23T13:02:09.914Z,44.31
2017-08-23T13:03:15.985Z,42.47
2017-08-23T13:04:22.040Z,42.88
2017-08-23T13:05:28.085Z,42.80
2017-08-23T13:06:34.129Z,43.97
2017-08-23T13:07:40.198Z,43.85
2017-08-23T13:08:46.303Z,41.72
2017-08-23T13:09:52.386Z,39.97
2017-08-23T13:10:58.482Z,38.78
2017-08-23T13:12:04.552Z,40.74
2017-08-23T13:13:10.583Z,42.19
2017-08-23T13:14:16.648Z,40.39
2017-08-23T13:15:22.686Z,41.31
2017-08-23T13:16:28.734Z,39.95
2017-08-23T13:17:34.766Z,38.64
2017-08-23T13:18:40.820Z,40.69
2017-08-23T13:19:46.908Z,41.28
2017-08-23T13:20:52.985Z,42.26
2017-08-23T13:21:58.864Z,42.55
2017-08-23T13:23:04.912Z,40.99
2017-08-23T13:24:16.733Z,40.75
2017-08-23T13:25:23.338Z,41.35
2017-08-23T13:26:30.668Z,39.84
2017-08-23T13:27:39.694Z,37.80
2017-08-23T13:28:48.416Z,39.57
2017-08-23T13:29:56.068Z,39.58
2017-08-23T13:31:03.121Z,37.80
2017-08-23T13:32:10.064Z,42.17
2017-08-23T13:33:17.233Z,39.99
2017-08-23T13:34:25.763Z,40.55
2017-08-23T13:35:33.587Z,39.58
2017-08-23T13:36:40.196Z,38.46
2017-08-23T13:37:46.646Z,41.64
2017-08-23T13:38:53.936Z,40.68
2017-08-23T13:40:05.147Z,37.66
2017-08-23T13:41:14.216Z,36.46
2017-08-23T13:42:21.459Z,37.79
2017-08-23T13:43:29.418Z,36.85
2017-08-23T13:44:37.424Z,37.70
2017-08-23T13:45:45.874Z,41.15
2017-08-23T13:46:54.408Z,37.33
2017-08-23T13:48:06.407Z,37.25
2017-08-23T13:49:13.237Z,38.57
2017-08-23T13:50:20.383Z,37.24
2017-08-23T13:51:27.754Z,39.00
2017-08-23T13:52:35.438Z,38.63
2017-08-23T13:53:43.947Z,41.72
2017-08-23T13:54:50.920Z,37.31
2017-08-23T13:55:58.425Z,35.70
2017-08-23T13:57:04.545Z,36.42
2017-08-23T13:58:10.872Z,38.20
2017-08-23T13:59:16.979Z,35.28
2017-08-23T14:00:23.144Z,36.33
2017-08-23T14:01:29.021Z,36.04
2017-08-23T14:02:35.108Z,38.05
2017-08-23T14:03:41.224Z,37.58
2017-08-23T14:04:47.415Z,35.95
2017-08-23T14:05:53.483Z,38.75
2017-08-23T14:06:59.618Z,38.84
2017-08-23T14:08:05.799Z,36.99
2017-08-23T14:09:12.732Z,37.13
2017-08-23T14:10:18.915Z,40.30
2017-08-23T14:11:24.987Z,37.73
2017-08-23T14:12:31.628Z,37.61
2017-08-23T14:13:37.923Z,35.27
2017-08-23T14:14:43.951Z,35.25
2017-08-23T14:15:50.035Z,35.55
2017-08-23T14:16:56.069Z,35.60
2017-08-23T14:18:02.209Z,36.77
2017-08-23T14:19:08.275Z,36.92
2017-08-23T14:20:14.342Z,37.90
2017-08-23T14:21:20.446Z,36.18
2017-08-23T14:22:26.470Z,37.88
2017-08-23T14:23:32.534Z,35.48
2017-08-23T14:24:38.937Z,34.67
2017-08-23T14:25:45.040Z,36.97
2017-08-23T14:26:51.172Z,35.70
2017-08-23T14:27:57.414Z,34.28
2017-08-23T14:29:03.578Z,34.55
2017-08-23T14:30:09.640Z,34.63
2017-08-23T14:31:15.672Z,32.75
2017-08-23T14:32:21.789Z,32.92
2017-08-23T14:33:27.834Z,35.14
2017-08-23T14:34:33.897Z,31.88
2017-08-23T14:35:39.973Z,31.50
2017-08-23T14:36:46.002Z,31.96
2017-08-23T14:37:52.109Z,33.82
2017-08-23T14:38:58.144Z,32.67
2017-08-23T14:40:04.203Z,32.63
2017-08-23T14:41:10.254Z,31.19
2017-08-23T14:42:16.293Z,31.85
2017-08-23T14:43:22.383Z,29.84
2017-08-23T14:44:28.488Z,31.79
2017-08-23T14:45:34.634Z,30.29
2017-08-23T14:46:40.690Z,32.44
2017-08-23T14:47:46.721Z,30.64
2017-08-23T14:48:52.510Z,29.38
2017-08-23T14:49:58.580Z,30.79
2017-08-23T14:51:04.616Z,30.56
2017-08-23T14:52:10.658Z,30.48
2017-08-23T14:53:16.740Z,28.96
2017-08-23T14:54:22.826Z,28.89
2017-08-23T14:55:28.920Z,30.46
2017-08-23T14:56:34.942Z,30.45
2017-08-23T14:57:40.991Z,31.15
2017-08-23T14:58:47.092Z,30.36
2017-08-23T14:59:53.348Z,32.07
2017-08-23T15:00:59.874Z,31.46
2017-08-23T15:02:05.682Z,31.13
2017-08-23T15:03:11.849Z,30.87
2017-08-23T15:04:17.935Z,31.14
2017-08-23T15:05:24.139Z,31.40
2017-08-23T15:06:30.243Z,30.16
2017-08-23T15:07:36.379Z,31.07
2017-08-23T15:08:42.429Z,33.11
2017-08-23T15:09:48.481Z,32.77
2017-08-23T15:10:54.570Z,37.28
2017-08-23T15:12:00.645Z,37.38
2017-08-23T15:13:07.563Z,35.14
2017-08-23T15:14:13.618Z,34.64
2017-08-23T15:15:19.699Z,36.64
2017-08-23T15:16:26.158Z,35.43
2017-08-23T15:17:32.560Z,34.16
2017-08-23T15:18:38.420Z,33.61
2017-08-23T15:19:44.469Z,32.35
2017-08-23T15:20:50.549Z,36.13
2017-08-23T15:21:56.698Z,32.08
2017-08-23T15:23:03.057Z,33.38
2017-08-23T15:24:09.093Z,33.23
2017-08-23T15:25:15.248Z,31.96
2017-08-23T15:26:21.333Z,31.50
2017-08-23T15:27:27.036Z,30.48
2017-08-23T15:28:33.113Z,32.35
2017-08-23T15:29:39.184Z,28.42
2017-08-23T15:30:45.225Z,30.01
2017-08-23T15:31:51.404Z,31.73
2017-08-23T15:32:57.679Z,28.05
2017-08-23T15:34:03.640Z,26.96
2017-08-23T15:35:09.696Z,28.39
2017-08-23T15:36:15.555Z,24.87
2017-08-23T15:37:21.831Z,26.60
2017-08-23T15:38:27.709Z,24.14
2017-08-23T15:39:33.900Z,26.01
2017-08-23T15:40:40.363Z,25.24
2017-08-23T15:41:46.445Z,25.08
2017-08-23T15:42:52.176Z,27.22
2017-08-23T15:43:57.965Z,27.09
2017-08-23T15:45:03.712Z,27.97
2017-08-23T15:46:09.466Z,29.95
2017-08-23T15:47:15.226Z,28.20
2017-08-23T15:48:20.953Z,29.55
2017-08-23T15:49:26.774Z,31.82
2017-08-23T15:50:32.548Z,29.70
2017-08-23T15:51:38.270Z,32.41
2017-08-23T15:52:44.037Z,32.72
2017-08-23T15:53:49.838Z,29.27
2017-08-23T15:54:55.633Z,27.99
2017-08-23T15:56:01.370Z,30.23
2017-08-23T15:57:07.113Z,25.51
2017-08-23T15:58:13.103Z,26.22
2017-08-23T15:59:18.875Z,25.63
2017-08-23T16:00:24.704Z,28.08
2017-08-23T16:01:30.252Z,28.31
2017-08-23T16:02:36.030Z,28.43
2017-08-23T16:03:41.815Z,26.30
2017-08-23T16:04:47.580Z,25.36
2017-08-23T16:05:53.359Z,24.63
2017-08-23T16:06:59.106Z,26.82
2017-08-23T16:08:04.868Z,27.55
2017-08-23T16:09:12.542Z,30.40
2017-08-23T16:10:22.104Z,27.75
2017-08-23T16:11:31.216Z,25.98
2017-08-23T16:12:41.101Z,30.49
2017-08-23T16:13:51.644Z,27.22
2017-08-23T16:14:59.994Z,27.34
2017-08-23T16:16:05.925Z,30.39
2017-08-23T16:17:12.670Z,33.90
2017-08-23T16:18:20.261Z,32.46
2017-08-23T16:19:28.665Z,28.21
2017-08-23T16:20:38.161Z,33.65
2017-08-23T16:21:45.957Z,31.92
2017-08-23T16:22:52.853Z,32.89
2017-08-23T16:24:00.569Z,32.06
2017-08-23T16:25:08.956Z,30.88
2017-08-23T16:26:15.956Z,30.17
2017-08-23T16:27:22.596Z,30.55
2017-08-23T16:28:28.455Z,32.66
2017-08-23T16:29:34.218Z,30.30
2017-08-23T16:30:39.987Z,31.83
2017-08-23T16:31:46.710Z,30.59
2017-08-23T16:32:53.070Z,32.28
2017-08-23T16:33:58.920Z,31.54
2017-08-23T16:35:04.743Z,31.51
2017-08-23T16:36:10.521Z,31.23
2017-08-23T16:37:17.550Z,35.83
2017-08-23T16:38:25.226Z,35.77
2017-08-23T16:39:33.658Z,36.11
2017-08-23T16:40:43.185Z,34.37
2017-08-23T16:41:52.472Z,35.75
2017-08-23T16:43:01.201Z,37.58
2017-08-23T16:44:10.176Z,37.41
2017-08-23T16:45:18.742Z,37.24
2017-08-23T16:46:25.638Z,40.53
2017-08-23T16:47:33.016Z,41.36
2017-08-23T16:48:42.331Z,44.04
2017-08-23T16:49:50.988Z,45.87
2017-08-23T16:51:00.849Z,44.50
2017-08-23T16:52:10.536Z,45.73
2017-08-23T16:53:19.551Z,45.80
2017-08-23T16:54:29.648Z,46.84
2017-08-23T16:55:39.122Z,49.98
2017-08-23T16:56:50.799Z,49.24
2017-08-23T16:57:59.678Z,50.24
2017-08-23T16:59:09.365Z,49.92
2017-08-23T17:00:20.914Z,49.61
2017-08-23T17:01:29.637Z,50.94
2017-08-23T17:02:37.111Z,51.86
2017-08-23T17:03:45.709Z,52.16
2017-08-23T17:04:54.656Z,53.49
2017-08-23T17:06:04.355Z,52.62
2017-08-23T17:07:12.593Z,51.19
2017-08-23T17:08:22.138Z,50.88
2017-08-23T17:09:30.545Z,51.85
2017-08-23T17:10:38.080Z,51.41
2017-08-23T17:11:47.231Z,51.44
2017-08-23T17:12:56.354Z,51.27
2017-08-23T17:14:02.925Z,50.79
2017-08-23T17:15:09.178Z,52.78
2017-08-23T17:16:16.653Z,55.19
2017-08-23T17:17:23.955Z,54.69
2017-08-23T17:18:30.302Z,54.82
2017-08-23T17:19:36.530Z,55.79
2017-08-23T17:20:43.879Z,55.26
2017-08-23T17:21:50.012Z,56.87
2017-08-23T17:22:56.872Z,58.14
2017-08-23T17:24:03.070Z,57.89
2017-08-23T17:25:10.289Z,58.35
2017-08-23T17:26:16.672Z,58.28
2017-08-23T17:27:22.521Z,60.02
2017-08-23T17:28:28.766Z,60.75
2017-08-23T17:29:35.298Z,60.98
2017-08-23T17:30:42.008Z,60.22
2017-08-23T17:31:49.671Z,60.26
2017-08-23T17:32:57.857Z,62.29
2017-08-23T17:34:04.174Z,62.98
2017-08-23T17:35:10.769Z,63.69
2017-08-23T17:36:17.638Z,63.38
2017-08-23T17:37:25.286Z,63.13
2017-08-23T17:38:32.255Z,63.60
2017-08-23T17:39:39.399Z,64.02
2017-08-23T17:40:45.760Z,64.32
2017-08-23T17:41:52.233Z,67.52
2017-08-23T17:42:59.155Z,65.64
2017-08-23T17:44:05.493Z,65.40
2017-08-23T17:45:11.842Z,66.39
2017-08-23T17:46:18.066Z,66.78
2017-08-23T17:47:24.272Z,66.83
2017-08-23T17:48:30.236Z,68.07
2017-08-23T17:49:36.441Z,66.93
2017-08-23T17:50:43.565Z,67.72
2017-08-23T17:51:49.671Z,66.85
2017-08-23T17:52:55.892Z,67.60
2017-08-23T17:54:02.125Z,67.31
2017-08-23T17:55:08.469Z,67.15
2017-08-23T17:56:15.449Z,68.68
2017-08-23T17:57:22.100Z,67.65
2017-08-23T17:58:29.024Z,67.30
2017-08-23T17:59:36.190Z,67.39
2017-08-23T18:00:42.455Z,68.64
2017-08-23T18:01:49.598Z,67.54
2017-08-23T18:02:55.846Z,68.68
2017-08-23T18:04:01.974Z,69.24
2017-08-23T18:05:08.175Z,69.51
2017-08-23T18:06:14.463Z,69.14
2017-08-23T18:07:20.611Z,70.42
2017-08-23T18:08:27.001Z,69.99
2017-08-23T18:09:33.113Z,69.39
2017-08-23T18:10:39.290Z,69.68
2017-08-23T18:11:46.142Z,69.29
2017-08-23T18:12:53.513Z,69.82
2017-08-23T18:14:02.616Z,70.12
2017-08-23T18:15:11.496Z,69.75
2017-08-23T18:16:17.855Z,70.58
2017-08-23T18:17:24.270Z,73.08
2017-08-23T18:18:30.674Z,71.86
2017-08-23T18:19:36.666Z,71.42
2017-08-23T18:20:44.516Z,72.36
2017-08-23T18:21:52.728Z,71.77
2017-08-23T18:23:01.724Z,70.79
2017-08-23T18:24:08.826Z,71.24
2017-08-23T18:25:17.600Z,71.59
2017-08-23T18:26:24.071Z,71.85
2017-08-23T18:27:31.606Z,72.85
2017-08-23T18:28:39.631Z,71.78
2017-08-23T18:29:47.366Z,72.32
2017-08-23T18:30:55.116Z,72.50
2017-08-23T18:32:02.899Z,73.23
2017-08-23T18:33:11.424Z,73.17
2017-08-23T18:34:21.242Z,72.66
2017-08-23T18:35:29.454Z,72.91
2017-08-23T18:36:37.750Z,74.13
2017-08-23T18:37:49.184Z,74.64
2017-08-23T18:38:58.407Z,74.24
2017-08-23T18:40:07.086Z,73.56
2017-08-23T18:41:15.511Z,75.68
2017-08-23T18:42:24.802Z,74.71
2017-08-23T18:43:33.076Z,74.15
2017-08-23T18:44:40.877Z,73.99
2017-08-23T18:45:48.399Z,74.04
2017-08-23T18:46:56.470Z,73.86
2017-08-23T18:48:04.592Z,73.64
2017-08-23T18:49:11.770Z,75.16
2017-08-23T18:50:19.085Z,74.63
2017-08-23T18:51:33.807Z,74.57
2017-08-23T18:52:44.883Z,75.50
2017-08-23T18:53:51.628Z,75.36
2017-08-23T18:54:59.549Z,75.48
2017-08-23T18:56:07.425Z,75.79
2017-08-23T18:57:13.990Z,76.56
2017-08-23T18:58:20.736Z,76.90
2017-08-23T18:59:27.927Z,76.80
2017-08-23T19:00:35.851Z,76.42
2017-08-23T19:01:43.181Z,76.39
2017-08-23T19:02:50.253Z,77.09
2017-08-23T19:03:56.566Z,76.42
2017-08-23T19:05:02.705Z,78.46
2017-08-23T19:06:08.768Z,77.01
2017-08-23T19:07:17.466Z,78.48
2017-08-23T19:08:25.890Z,78.10
2017-08-23T19:09:34.152Z,78.80
2017-08-23T19:10:42.502Z,78.60
2017-08-23T19:11:50.997Z,78.64
2017-08-23T19:12:59.188Z,78.33
2017-08-23T19:14:07.564Z,78.65
2017-08-23T19:15:16.064Z,78.96
2017-08-23T19:16:25.027Z,78.35
2017-08-23T19:17:33.861Z,77.92
2017-08-23T19:18:42.825Z,78.63
2017-08-23T19:19:51.696Z,78.67
2017-08-23T19:20:58.725Z,78.68
2017-08-23T19:22:04.868Z,78.79
2017-08-23T19:23:13.063Z,78.57
2017-08-23T19:24:21.687Z,77.47
2017-08-23T19:25:30.697Z,77.71
2017-08-23T19:26:38.273Z,78.23
2017-08-23T19:27:47.613Z,78.38
2017-08-23T19:28:56.956Z,79.70
2017-08-23T19:30:06.166Z,79.00
2017-08-23T19:31:12.345Z,79.17
2017-08-23T19:32:21.016Z,79.07
2017-08-23T19:33:29.957Z,78.33
2017-08-23T19:34:38.212Z,78.20
2017-08-23T19:35:45.642Z,79.20
2017-08-23T19:36:55.802Z,78.55
2017-08-23T19:38:04.284Z,79.02
2017-08-23T19:39:13.861Z,78.91
2017-08-23T19:40:22.761Z,78.42
2017-08-23T19:41:30.921Z,78.54
2017-08-23T19:42:40.447Z,79.53
2017-08-23T19:43:48.996Z,79.86
2017-08-23T19:44:58.141Z,79.76
2017-08-23T19:46:06.643Z,80.56
2017-08-23T19:47:14.227Z,80.89
2017-08-23T19:48:23.171Z,80.86
2017-08-23T19:49:32.234Z,81.80
2017-08-23T19:50:44.493Z,82.12
2017-08-23T19:51:52.098Z,81.77
2017-08-23T19:53:00.685Z,81.39
2017-08-23T19:54:09.514Z,81.05
2017-08-23T19:55:17.591Z,80.64
2017-08-23T19:56:25.846Z,80.36
2017-08-23T19:57:34.235Z,80.05
2017-08-23T19:58:42.340Z,80.59
2017-08-23T19:59:49.973Z,80.38
2017-08-23T20:00:59.195Z,80.47
2017-08-23T20:02:06.866Z,80.93
2017-08-23T20:03:16.102Z,81.04
2017-08-23T20:04:23.716Z,81.59
2017-08-23T20:05:32.609Z,82.03
2017-08-23T20:06:41.886Z,82.03
2017-08-23T20:07:50.556Z,81.76
2017-08-23T20:08:58.737Z,81.99
2017-08-23T20:10:07.159Z,81.91
2017-08-23T20:11:14.199Z,82.47
2017-08-23T20:12:21.811Z,82.65
2017-08-23T20:13:29.201Z,82.75
2017-08-23T20:14:37.252Z,82.83
2017-08-23T20:15:46.847Z,83.02
2017-08-23T20:16:56.130Z,82.01
2017-08-23T20:18:05.833Z,81.88
2017-08-23T20:19:13.534Z,82.00
2017-08-23T20:20:21.703Z,82.18
2017-08-23T20:21:30.572Z,81.90
2017-08-23T20:22:40.188Z,82.01
2017-08-23T20:23:48.645Z,83.25
2017-08-23T20:24:57.061Z,83.75
2017-08-23T20:26:06.277Z,83.18
2017-08-23T20:27:15.237Z,83.32
2017-08-23T20:28:24.676Z,83.80
2017-08-23T20:29:32.289Z,83.17
2017-08-23T20:30:39.785Z,83.80
2017-08-23T20:31:47.783Z,83.41
2017-08-23T20:32:55.321Z,83.10
2017-08-23T20:34:01.427Z,82.76
2017-08-23T20:35:07.455Z,82.42
2017-08-23T20:36:13.507Z,84.39
2017-08-23T20:37:19.545Z,84.11
2017-08-23T20:38:25.573Z,83.67
2017-08-23T20:39:31.672Z,83.46
2017-08-23T20:40:37.718Z,84.32
2017-08-23T20:41:43.745Z,84.09
2017-08-23T20:42:49.870Z,84.67
2017-08-23T20:43:56.019Z,84.46
2017-08-23T20:45:02.376Z,84.71
2017-08-23T20:46:08.320Z,84.27
2017-08-23T20:47:14.378Z,83.92
2017-08-23T20:48:20.439Z,84.10
2017-08-23T20:49:26.520Z,83.64
2017-08-23T20:50:34.044Z,85.61
2017-08-23T20:51:40.117Z,85.54
2017-08-23T20:52:46.190Z,85.11
2017-08-23T20:53:52.284Z,85.23
2017-08-23T20:54:58.439Z,85.77
2017-08-23T20:56:04.603Z,85.71
2017-08-23T20:57:10.717Z,86.37
2017-08-23T20:58:16.779Z,85.63
2017-08-23T20:59:22.862Z,85.71
2017-08-23T21:00:28.960Z,86.38
2017-08-23T21:01:35.072Z,85.80
2017-08-23T21:02:41.161Z,85.10
2017-08-23T21:03:47.193Z,84.86
2017-08-23T21:04:53.289Z,84.11
2017-08-23T21:05:58.966Z,84.22
2017-08-23T21:07:05.091Z,84.15
2017-08-23T21:08:11.162Z,84.58
2017-08-23T21:09:17.230Z,84.43
2017-08-23T21:10:23.326Z,85.34
2017-08-23T21:11:29.387Z,85.73
2017-08-23T21:12:35.533Z,85.36
2017-08-23T21:13:41.655Z,86.20
2017-08-23T21:14:47.786Z,86.17
2017-08-23T21:15:53.846Z,85.98
2017-08-23T21:16:59.928Z,85.88
2017-08-23T21:18:06.013Z,85.78
2017-08-23T21:19:12.098Z,85.50
2017-08-23T21:20:18.152Z,85.36
2017-08-23T21:21:24.197Z,84.58
2017-08-23T21:22:30.231Z,84.91
2017-08-23T21:23:36.321Z,85.53
2017-08-23T21:24:42.428Z,85.37
2017-08-23T21:25:48.537Z,86.81
2017-08-23T21:26:54.612Z,86.72
2017-08-23T21:28:00.750Z,86.87
2017-08-23T21:29:06.858Z,86.32
2017-08-23T21:30:12.964Z,85.36
2017-08-23T21:31:19.092Z,85.77
2017-08-23T21:32:24.505Z,85.57
2017-08-23T21:33:30.625Z,86.08
2017-08-23T21:34:36.801Z,86.98
2017-08-23T21:35:42.909Z,86.33
2017-08-23T21:36:49.043Z,87.82
2017-08-23T21:37:55.144Z,87.70
2017-08-23T21:39:01.218Z,87.73
2017-08-23T21:40:07.411Z,86.39
2017-08-23T21:41:13.507Z,87.09
2017-08-23T21:42:19.657Z,87.19
2017-08-23T21:43:25.772Z,87.06
2017-08-23T21:44:31.899Z,86.97
2017-08-23T21:45:38.070Z,86.32
2017-08-23T21:46:44.461Z,86.07
2017-08-23T21:47:50.495Z,85.23
2017-08-23T21:48:56.497Z,85.04
2017-08-23T21:50:02.650Z,85.42
2017-08-23T21:51:08.824Z,85.45
2017-08-23T21:52:14.931Z,85.81
2017-08-23T21:53:21.017Z,86.94
2017-08-23T21:54:27.094Z,86.92
2017-08-23T21:55:33.230Z,85.96
2017-08-23T21:56:39.358Z,85.92
2017-08-23T21:57:45.448Z,85.90
2017-08-23T21:58:51.533Z,86.00
2017-08-23T21:59:57.618Z,87.65
2017-08-23T22:01:03.949Z,87.61
2017-08-23T22:02:10.087Z,86.68
2017-08-23T22:03:16.131Z,85.98
2017-08-23T22:04:22.281Z,87.12
2017-08-23T22:05:28.461Z,87.48
2017-08-23T22:06:34.728Z,87.84
2017-08-23T22:07:41.032Z,87.58
2017-08-23T22:08:47.174Z,87.14
2017-08-23T22:09:53.294Z,87.14
2017-08-23T22:10:59.413Z,87.25
2017-08-23T22:12:05.472Z,89.12
2017-08-23T22:13:11.641Z,87.92
2017-08-23T22:14:17.742Z,89.17
2017-08-23T22:15:23.867Z,88.61
2017-08-23T22:16:29.969Z,87.74
2017-08-23T22:17:36.026Z,86.81
2017-08-23T22:18:42.188Z,86.51
2017-08-23T22:19:48.338Z,86.30
2017-08-23T22:20:54.461Z,86.50
2017-08-23T22:22:00.578Z,86.59
2017-08-23T22:23:06.663Z,86.92
2017-08-23T22:24:12.761Z,88.53
2017-08-23T22:25:18.929Z,88.08
2017-08-23T22:26:24.986Z,87.97
2017-08-23T22:27:31.087Z,87.10
2017-08-23T22:28:37.178Z,86.93
2017-08-23T22:29:43.361Z,87.29
2017-08-23T22:30:49.569Z,87.60
2017-08-23T22:31:55.467Z,88.55
2017-08-23T22:33:01.627Z,89.12
2017-08-23T22:34:07.911Z,89.21
2017-08-23T22:35:14.171Z,88.88
2017-08-23T22:36:20.338Z,88.66
2017-08-23T22:37:26.375Z,88.83
2017-08-23T22:38:32.502Z,89.19
2017-08-23T22:39:38.559Z,89.73
2017-08-23T22:40:44.741Z,89.71
2017-08-23T22:41:50.871Z,88.92
2017-08-23T22:42:56.954Z,89.17
2017-08-23T22:44:03.176Z,89.11
2017-08-23T22:45:09.253Z,88.93
2017-08-23T22:46:15.389Z,88.02
2017-08-23T22:47:21.576Z,87.96
2017-08-23T22:48:27.715Z,90.02
2017-08-23T22:49:33.836Z,90.11
2017-08-23T22:50:39.915Z,89.87
2017-08-23T22:51:45.994Z,89.83
2017-08-23T22:52:52.208Z,89.85
2017-08-23T22:53:58.360Z,89.71
2017-08-23T22:55:04.504Z,88.96
2017-08-23T22:56:10.790Z,90.24
2017-08-23T22:57:17.707Z,90.22
2017-08-23T22:58:23.876Z,89.67
2017-08-23T22:59:29.991Z,90.29
2017-08-23T23:00:36.083Z,90.03
2017-08-23T23:01:42.009Z,90.08
2017-08-23T23:02:48.082Z,89.26
2017-08-23T23:03:54.201Z,89.33
2017-08-23T23:05:00.341Z,88.39
2017-08-23T23:06:06.444Z,89.38
2017-08-23T23:07:12.524Z,89.54
2017-08-23T23:08:18.657Z,89.49
2017-08-23T23:09:24.850Z,89.48
2017-08-23T23:10:31.006Z,89.55
2017-08-23T23:11:37.337Z,89.54
2017-08-23T23:12:43.477Z,89.89
2017-08-23T23:13:49.691Z,89.98
2017-08-23T23:14:55.841Z,90.12
2017-08-23T23:16:01.901Z,90.03
2017-08-23T23:17:08.026Z,89.33
2017-08-23T23:18:14.212Z,88.93
2017-08-23T23:19:21.073Z,90.51
2017-08-23T23:20:27.752Z,90.03
2017-08-23T23:21:33.967Z,88.82
2017-08-23T23:22:41.135Z,88.16
2017-08-23T23:23:47.327Z,88.79
2017-08-23T23:24:54.410Z,89.59
2017-08-23T23:26:00.502Z,88.81
2017-08-23T23:27:06.602Z,89.10
2017-08-23T23:28:12.654Z,88.15
2017-08-23T23:29:18.687Z,88.88
2017-08-23T23:30:24.839Z,88.31
2017-08-23T23:31:30.924Z,89.11
2017-08-23T23:32:36.982Z,89.07
2017-08-23T23:33:43.075Z,89.80
2017-08-23T23:34:49.220Z,89.76
2017-08-23T23:35:55.446Z,89.60
2017-08-23T23:37:02.018Z,89.72
2017-08-23T23:38:08.744Z,90.05
2017-08-23T23:39:14.977Z,89.89
2017-08-23T23:40:23.296Z,90.02
2017-08-23T23:41:29.993Z,89.99
2017-08-23T23:42:36.235Z,90.43
2017-08-23T23:43:42.363Z,90.33
2017-08-23T23:44:48.494Z,91.41
2017-08-23T23:45:54.808Z,91.14
2017-08-23T23:47:00.944Z,90.56
2017-08-23T23:48:07.062Z,89.51
2017-08-23T23:49:13.136Z,88.46
2017-08-23T23:50:19.226Z,89.69
2017-08-23T23:51:25.312Z,90.54
2017-08-23T23:52:31.445Z,89.48
2017-08-23T23:53:37.580Z,88.35
2017-08-23T23:54:43.659Z,88.15
2017-08-23T23:55:49.780Z,88.57
2017-08-23T23:56:55.934Z,88.97
2017-08-23T23:58:02.049Z,89.94
2017-08-23T23:59:08.166Z,89.38
